Time;durP1;ratioP1;P1;durP2;ratioP2;P2;SDS_P1;SDS_P2;PMS_P1;PMS_P2;Temp;Humidity;BMP_temperature;BMP_pressure;BME280_temperature;BME280_humidity;BME280_pressure;Samples;Min_cycle;Max_cycle;Signal;HPM_P1;HPM_P2
2022/12/10 00:01:50;;;;;;;;;14.40;13.40;;;;;18.61;47.21;97953.88;5058847;28;8859;-82
2022/12/10 00:04:20;;;;;;;;;14.80;12.20;;;;;18.63;47.10;97954.63;5010641;28;8860;-80
2022/12/10 00:06:49;;;;;;;;;12.60;11.00;;;;;18.66;47.21;97952.66;5010001;28;9620;-80
2022/12/10 00:09:20;;;;;;;;;12.40;11.00;;;;;18.72;46.90;97947.97;5010302;28;8960;-81
2022/12/10 00:11:49;;;;;;;;;11.00;10.60;;;;;18.74;46.97;97954.00;5028469;28;8960;-79
2022/12/10 00:14:19;;;;;;;;;11.40;11.00;;;;;18.70;47.26;97946.25;5013659;28;8852;-82
2022/12/10 00:16:48;;;;;;;;;2.00;1.20;;;;;18.64;47.35;97941.34;5029371;28;8917;-80
2022/12/10 00:19:17;;;;;;;;;14.40;11.00;;;;;18.73;47.18;97932.00;5047112;28;9025;-78
2022/12/10 00:21:46;;;;;;;;;15.80;14.60;;;;;18.73;47.40;97947.00;5013748;28;8902;-80
2022/12/10 00:24:14;;;;;;;;;13.60;11.20;;;;;18.73;47.36;97958.41;5063315;28;8864;-81
2022/12/10 00:26:45;;;;;;;;;10.20;9.20;;;;;18.68;47.30;97963.97;4981180;28;10172;-79
2022/12/10 00:29:14;;;;;;;;;17.00;15.40;;;;;18.65;47.56;97960.66;5030018;28;8866;-81
2022/12/10 00:31:44;;;;;;;;;12.40;10.80;;;;;18.69;47.68;97964.81;5030303;28;8844;-81
2022/12/10 00:34:13;;;;;;;;;14.00;12.20;;;;;18.52;47.85;97973.72;5029207;28;8836;-79
2022/12/10 00:36:44;;;;;;;;;12.60;10.80;;;;;18.63;47.78;97967.84;5030851;28;8883;-81
2022/12/10 00:39:16;;;;;;;;;10.40;10.00;;;;;18.62;47.42;97969.63;5029695;28;8864;-79
2022/12/10 00:41:46;;;;;;;;;12.00;11.00;;;;;18.58;47.86;97952.28;5062574;28;8848;-80
2022/12/10 00:44:14;;;;;;;;;13.60;11.80;;;;;18.51;48.11;97956.22;5013396;28;8871;-80
2022/12/10 00:46:45;;;;;;;;;11.60;10.60;;;;;18.54;48.01;97963.94;5013159;28;8874;-80
2022/12/10 00:49:14;;;;;;;;;10.20;8.60;;;;;18.56;48.06;97967.34;5012912;28;8994;-80
2022/12/10 00:51:43;;;;;;;;;11.00;10.20;;;;;18.63;47.98;97966.03;5012308;28;8851;-80
2022/12/10 00:54:12;;;;;;;;;9.00;7.20;;;;;18.69;47.67;97964.81;5026126;28;8881;-78
2022/12/10 00:56:41;;;;;;;;;13.00;11.20;;;;;18.65;47.73;97966.78;5009646;28;8896;-79
2022/12/10 00:59:10;;;;;;;;;9.80;8.60;;;;;18.79;47.42;97966.00;5027411;28;8866;-78
2022/12/10 01:01:41;;;;;;;;;5.60;5.00;;;;;18.69;47.58;97970.09;5012342;28;8854;-79
2022/12/10 01:04:15;;;;;;;;;9.20;8.00;;;;;18.86;47.40;97969.97;4995383;28;8894;-79
2022/12/10 01:06:45;;;;;;;;;11.40;10.80;;;;;18.78;47.56;97972.19;5028939;28;8838;-79
2022/12/10 01:09:17;;;;;;;;;12.20;9.60;;;;;18.80;47.70;97973.00;4995835;28;8842;-79
2022/12/10 01:11:47;;;;;;;;;11.40;9.60;;;;;18.78;47.57;97964.28;5027987;28;9591;-78
2022/12/10 01:14:19;;;;;;;;;12.00;9.20;;;;;18.83;47.64;97964.91;5028234;28;8873;-79
2022/12/10 01:16:49;;;;;;;;;9.80;8.60;;;;;18.78;47.73;97964.28;5027909;28;8853;-78
2022/12/10 01:19:20;;;;;;;;;10.80;9.60;;;;;18.79;47.76;97973.03;5027530;28;8872;-80
2022/12/10 01:21:51;;;;;;;;;11.20;10.20;;;;;18.79;47.87;97970.41;4998951;28;8887;-79
2022/12/10 01:24:20;;;;;;;;;7.20;6.40;;;;;18.71;47.76;97952.38;4991113;28;8864;-78
2022/12/10 01:26:49;;;;;;;;;9.00;7.80;;;;;18.66;47.66;97960.59;4990980;28;8844;-78
2022/12/10 01:29:17;;;;;;;;;7.20;7.20;;;;;18.78;47.38;97953.72;4975475;28;8998;-79
2022/12/10 01:31:47;;;;;;;;;6.00;6.00;;;;;18.79;47.02;97960.72;4991563;28;8852;-82
2022/12/10 01:34:16;;;;;;;;;9.80;7.20;;;;;18.87;46.98;97955.84;4991784;28;10034;-80
2022/12/10 01:36:50;;;;;;;;;8.20;8.20;;;;;18.93;46.64;97944.06;5004723;28;8842;-80
2022/12/10 01:39:20;;;;;;;;;8.00;7.20;;;;;18.99;46.33;97937.56;4972423;28;8847;-78
2022/12/10 01:41:52;;;;;;;;;6.00;6.00;;;;;19.08;46.16;97942.28;4974133;28;8842;-78
2022/12/10 01:45:00;;;;;;;;;9.20;8.60;;;;;19.09;45.95;97934.28;5002026;28;8855;-80
2022/12/10 01:47:31;;;;;;;;;3.00;3.00;;;;;19.08;46.07;97939.63;5061759;28;8851;-80
2022/12/10 01:50:00;;;;;;;;;8.20;8.20;;;;;19.17;45.33;97943.50;5012375;28;8885;-79
2022/12/10 01:52:32;;;;;;;;;6.80;6.80;;;;;19.26;45.56;97933.22;5011565;28;8867;-78
2022/12/10 01:55:00;;;;;;;;;7.00;6.20;;;;;19.31;45.19;97932.94;5010421;28;8853;-78
2022/12/10 01:57:30;;;;;;;;;8.00;7.60;;;;;19.38;44.98;97923.69;5010832;28;8911;-80
2022/12/10 02:00:02;;;;;;;;;5.60;5.60;;;;;19.36;44.94;97922.09;5010042;28;8915;-78
2022/12/10 02:02:48;;;;;;;;;5.80;5.80;;;;;19.50;44.78;97910.63;5012115;28;8895;-78
2022/12/10 02:05:28;;;;;;;;;7.00;6.20;;;;;19.49;44.44;97907.16;5030366;28;8854;-79
2022/12/10 02:08:07;;;;;;;;;7.40;5.60;;;;;19.50;44.44;97908.00;5014343;28;8854;-79
2022/12/10 02:10:47;;;;;;;;;4.80;4.80;;;;;19.56;44.24;97912.88;5014358;28;10251;-80
2022/12/10 02:13:22;;;;;;;;;5.00;4.80;;;;;19.60;44.04;97907.31;5030887;28;8882;-79
2022/12/10 02:15:59;;;;;;;;;4.20;4.20;;;;;19.67;43.96;97905.97;5013457;28;9958;-78
2022/12/10 02:18:36;;;;;;;;;5.40;5.40;;;;;19.70;43.57;97907.56;5014570;28;8874;-79
2022/12/10 02:21:11;;;;;;;;;5.20;5.20;;;;;19.78;43.88;97896.53;5031110;28;8855;-79
2022/12/10 02:23:48;;;;;;;;;6.00;6.00;;;;;19.65;43.69;97896.44;5030388;28;8843;-78
2022/12/10 02:26:26;;;;;;;;;4.00;4.00;;;;;19.74;43.73;97892.41;5003371;28;8925;-80
2022/12/10 02:29:11;;;;;;;;;4.20;4.00;;;;;19.78;43.48;97889.44;4994294;28;8942;-79
2022/12/10 02:31:45;;;;;;;;;5.00;5.00;;;;;19.63;43.81;97875.38;5010447;28;8864;-78
2022/12/10 02:34:17;;;;;;;;;4.00;4.00;;;;;19.56;44.03;97881.16;5009207;28;8840;-80
2022/12/10 02:36:51;;;;;;;;;5.20;5.20;;;;;19.48;44.11;97889.56;5005664;28;8854;-78
2022/12/10 02:39:29;;;;;;;;;4.20;4.20;;;;;19.36;44.45;97880.63;5014376;28;8850;-79
2022/12/10 02:42:05;;;;;;;;;6.40;5.80;;;;;19.45;44.16;97879.19;5030546;28;8866;-78
2022/12/10 02:44:38;;;;;;;;;3.80;3.60;;;;;19.51;44.08;97880.59;5017344;28;8866;-77
2022/12/10 02:47:09;;;;;;;;;4.60;4.00;;;;;19.37;44.46;97892.88;5025077;28;8877;-79
2022/12/10 02:49:44;;;;;;;;;7.00;7.00;;;;;19.39;44.26;97884.88;4993229;28;8858;-78
2022/12/10 02:52:15;;;;;;;;;6.60;5.20;;;;;19.38;44.20;97891.13;5009122;28;8927;-78
2022/12/10 02:54:48;;;;;;;;;3.80;3.80;;;;;19.43;44.32;97879.31;5025343;28;8838;-79
2022/12/10 02:57:30;;;;;;;;;4.00;3.80;;;;;19.42;44.22;97889.97;5009690;28;8870;-78
2022/12/10 03:00:16;;;;;;;;;8.20;6.20;;;;;19.53;44.22;97886.63;5008138;28;8846;-80
2022/12/10 03:03:12;;;;;;;;;5.20;5.00;;;;;19.48;44.24;97890.41;5031356;28;8871;-79
2022/12/10 03:05:47;;;;;;;;;6.20;5.20;;;;;19.35;44.30;97886.84;5028353;28;9651;-78
2022/12/10 03:08:21;;;;;;;;;6.80;6.00;;;;;19.41;44.26;97894.41;5029323;28;8941;-79
2022/12/10 03:10:56;;;;;;;;;3.60;3.00;;;;;19.44;44.24;97888.91;5028864;28;8848;-78
2022/12/10 03:13:30;;;;;;;;;6.60;6.60;;;;;19.55;43.96;97898.81;5010598;28;8826;-78
2022/12/10 03:16:03;;;;;;;;;5.20;5.00;;;;;19.54;44.08;97893.63;4996692;28;8926;-79
2022/12/10 03:18:35;;;;;;;;;7.20;4.80;;;;;19.70;43.77;97888.19;5011587;28;8858;-78
2022/12/10 03:21:07;;;;;;;;;5.20;5.00;;;;;19.58;43.81;97892.47;5009537;28;8846;-79
2022/12/10 03:23:40;;;;;;;;;6.00;5.40;;;;;19.65;43.63;97893.78;4993514;28;8892;-77
2022/12/10 03:26:10;;;;;;;;;5.00;4.00;;;;;19.66;43.72;97903.44;5010458;28;8878;-79
2022/12/10 03:28:40;;;;;;;;;4.20;3.40;;;;;19.69;43.62;97890.00;4973925;28;8861;-79
2022/12/10 03:31:13;;;;;;;;;3.60;3.60;;;;;19.77;43.46;97889.53;4954309;28;8956;-78
2022/12/10 03:33:42;;;;;;;;;4.60;4.20;;;;;19.79;43.40;97887.63;4970139;28;9683;-80
2022/12/10 03:36:12;;;;;;;;;4.40;4.40;;;;;19.71;43.30;97885.44;4969606;28;9623;-79
2022/12/10 03:38:42;;;;;;;;;5.00;5.00;;;;;19.68;43.54;97889.16;4986827;28;8866;-77
2022/12/10 03:41:11;;;;;;;;;3.80;2.60;;;;;19.74;43.33;97893.22;4970478;28;8846;-81
2022/12/10 03:43:51;;;;;;;;;5.00;4.00;;;;;19.82;43.38;97888.28;4970817;28;8858;-79
2022/12/10 03:46:22;;;;;;;;;3.80;3.80;;;;;19.68;43.54;97885.66;4972601;28;8950;-78
2022/12/10 03:48:51;;;;;;;;;4.80;4.20;;;;;19.63;43.65;97878.03;4991449;28;8856;-80
2022/12/10 03:51:20;;;;;;;;;4.80;3.60;;;;;19.63;43.53;97871.88;4974015;28;8860;-79
2022/12/10 03:53:49;;;;;;;;;4.20;4.00;;;;;19.63;43.45;97890.41;4975276;28;8872;-79
2022/12/10 03:56:20;;;;;;;;;5.00;4.00;;;;;19.59;43.46;97883.63;4990921;28;8857;-79
2022/12/10 03:58:49;;;;;;;;;6.80;5.40;;;;;19.43;43.95;97881.94;4945702;28;8898;-79
2022/12/10 04:01:18;;;;;;;;;5.00;5.00;;;;;19.53;43.75;97879.56;5064441;28;8894;-81
2022/12/10 04:03:47;;;;;;;;;3.00;3.00;;;;;19.50;43.75;97887.69;5031556;28;8879;-79
2022/12/10 04:06:18;;;;;;;;;2.80;1.40;;;;;19.54;43.65;97885.69;5030352;28;8855;-76
2022/12/10 04:08:48;;;;;;;;;4.00;3.60;;;;;19.55;43.73;97885.59;5014889;28;8876;-78
2022/12/10 04:11:24;;;;;;;;;4.40;4.00;;;;;19.58;43.64;97879.25;4995239;28;8939;-77
2022/12/10 04:16:39;;;;;;;;;6.60;6.40;;;;;19.62;43.49;97880.75;4995424;28;8878;-79
2022/12/10 04:19:12;;;;;;;;;4.20;3.20;;;;;19.63;43.41;97872.72;5011019;28;8882;-80
2022/12/10 04:27:21;;;;;;;;;5.00;5.00;;;;;19.33;43.91;97864.13;5014495;28;9002;-78
2022/12/10 04:29:51;;;;;;;;;5.60;4.80;;;;;19.35;44.06;97870.16;5014172;28;10008;-79
2022/12/10 04:32:20;;;;;;;;;3.00;2.80;;;;;19.29;44.04;97871.41;5014147;28;8847;-79
2022/12/10 04:34:50;;;;;;;;;3.40;3.40;;;;;19.32;44.13;97862.41;5032274;28;8886;-78
2022/12/10 04:37:19;;;;;;;;;4.00;3.60;;;;;19.28;44.02;97862.63;5031766;28;8851;-81
2022/12/10 04:39:48;;;;;;;;;13.20;10.40;;;;;19.30;44.00;97859.88;5030012;28;8867;-77
2022/12/10 04:42:18;;;;;;;;;7.20;5.80;;;;;19.37;43.67;97855.88;5030994;28;8886;-81
2022/12/10 04:44:46;;;;;;;;;7.40;4.40;;;;;19.35;43.76;97854.28;5031275;28;9033;-80
2022/12/10 04:47:15;;;;;;;;;5.00;4.00;;;;;19.27;43.86;97860.06;5013651;28;8867;-78
2022/12/10 04:49:45;;;;;;;;;3.80;2.40;;;;;19.27;44.03;97852.97;5046635;28;8859;-78
2022/12/10 04:52:17;;;;;;;;;6.00;5.20;;;;;19.37;43.80;97853.25;5030451;28;8840;-79
2022/12/10 04:54:46;;;;;;;;;6.80;6.40;;;;;19.38;43.76;97857.59;5031690;28;8898;-79
2022/12/10 04:57:14;;;;;;;;;7.80;5.80;;;;;19.28;43.92;97861.75;5032477;28;8875;-80
2022/12/10 04:59:43;;;;;;;;;3.00;2.80;;;;;19.22;43.95;97857.69;5045342;28;8844;-80
2022/12/10 05:02:12;;;;;;;;;4.00;3.00;;;;;19.23;44.03;97861.22;5062826;28;8852;-79
2022/12/10 05:04:40;;;;;;;;;5.00;4.00;;;;;19.25;43.94;97864.59;5046489;28;8887;-80
2022/12/10 05:07:09;;;;;;;;;5.00;4.20;;;;;19.27;43.90;97857.44;5029686;28;8860;-79
2022/12/10 05:09:40;;;;;;;;;5.20;4.20;;;;;19.25;43.85;97862.81;5046075;28;8879;-78
2022/12/10 05:12:08;;;;;;;;;5.60;4.00;;;;;19.30;43.69;97865.19;5011798;28;8847;-80
2022/12/10 05:14:37;;;;;;;;;3.60;2.60;;;;;19.35;43.49;97872.81;5029405;28;9806;-78
2022/12/10 05:17:06;;;;;;;;;5.20;3.80;;;;;19.40;43.60;97865.44;5045144;28;8929;-78
2022/12/10 05:19:34;;;;;;;;;5.40;3.80;;;;;19.46;43.39;97865.03;5029999;28;8882;-79
2022/12/10 05:24:50;;;;;;;;;5.20;5.20;;;;;19.53;43.31;97850.47;5029750;28;8855;-81
2022/12/10 05:27:19;;;;;;;;;3.60;3.60;;;;;19.62;43.03;97839.31;5062250;28;8844;-79
2022/12/10 05:29:47;;;;;;;;;5.80;4.40;;;;;19.68;42.89;97840.72;5029804;28;8867;-80
2022/12/10 05:32:16;;;;;;;;;4.80;4.80;;;;;19.66;42.89;97842.63;4995152;28;8840;-79
2022/12/10 05:34:45;;;;;;;;;5.80;5.00;;;;;19.56;42.99;97844.13;5062708;28;8871;-79
2022/12/10 05:37:13;;;;;;;;;4.00;3.80;;;;;19.56;43.06;97846.78;5013007;28;8855;-78
2022/12/10 05:39:42;;;;;;;;;6.80;4.00;;;;;19.62;42.87;97838.44;4995287;28;8889;-79
2022/12/10 05:42:12;;;;;;;;;4.60;3.40;;;;;19.61;42.93;97844.69;5028271;28;8855;-78
2022/12/10 05:44:40;;;;;;;;;4.40;3.60;;;;;19.54;42.99;97846.88;5028457;28;9015;-78
2022/12/10 05:47:09;;;;;;;;;5.40;4.40;;;;;19.58;42.95;97847.53;5012328;28;8851;-80
2022/12/10 05:49:38;;;;;;;;;5.00;3.00;;;;;19.54;42.93;97838.94;5028043;28;8851;-79
2022/12/10 05:52:08;;;;;;;;;4.00;4.00;;;;;19.66;42.78;97847.91;4995680;28;8871;-79
2022/12/10 05:54:37;;;;;;;;;4.00;3.60;;;;;19.63;42.71;97851.56;5007677;28;8906;-77
2022/12/10 05:57:06;;;;;;;;;2.80;2.80;;;;;19.73;42.64;97853.66;5008107;28;8960;-80
2022/12/10 05:59:36;;;;;;;;;5.00;3.40;;;;;19.72;42.79;97849.28;5007641;28;8844;-80
2022/12/10 06:02:05;;;;;;;;;2.40;2.40;;;;;19.70;42.70;97862.63;5008373;28;8974;-80
2022/12/10 06:04:34;;;;;;;;;4.20;4.20;;;;;19.69;42.70;97858.25;4987342;28;9561;-79
2022/12/10 06:07:03;;;;;;;;;4.00;3.40;;;;;19.67;42.74;97860.16;4987608;28;8877;-77
2022/12/10 06:09:38;;;;;;;;;4.40;4.40;;;;;19.81;42.57;97860.16;4986727;28;9029;-78
2022/12/10 06:12:07;;;;;;;;;4.40;4.40;;;;;19.84;42.41;97853.81;5007135;28;8852;-79
2022/12/10 06:14:37;;;;;;;;;3.60;3.60;;;;;19.89;42.44;97856.16;5007263;28;8879;-78
2022/12/10 06:17:05;;;;;;;;;6.40;6.40;;;;;19.83;42.36;97852.97;5023704;28;8871;-79
2022/12/10 06:19:34;;;;;;;;;5.00;3.60;;;;;19.81;42.39;97856.63;4988365;28;8835;-78
2022/12/10 06:22:03;;;;;;;;;5.00;4.80;;;;;19.82;42.41;97859.19;5007090;28;8844;-78
2022/12/10 06:24:31;;;;;;;;;4.40;4.40;;;;;19.82;42.41;97858.34;4990906;28;8898;-80
2022/12/10 06:27:00;;;;;;;;;6.20;5.00;;;;;19.82;42.54;97855.69;4994132;28;8851;-80
2022/12/10 06:29:29;;;;;;;;;3.00;3.00;;;;;19.78;42.28;97855.06;5027936;28;8966;-78
2022/12/10 06:31:59;;;;;;;;;7.00;4.80;;;;;19.79;42.61;97861.19;5012112;28;8920;-80
2022/12/10 06:34:27;;;;;;;;;4.40;4.40;;;;;19.81;42.38;97865.44;5043688;28;8863;-79
2022/12/10 06:36:56;;;;;;;;;4.00;3.00;;;;;19.89;42.19;97858.81;5027853;28;8860;-79
2022/12/10 06:39:25;;;;;;;;;3.40;3.40;;;;;19.91;42.31;97859.56;5028430;28;8860;-81
2022/12/10 06:41:54;;;;;;;;;3.00;3.00;;;;;19.80;42.56;97861.09;4979041;28;8940;-79
2022/12/10 06:44:26;;;;;;;;;6.40;6.40;;;;;19.87;42.42;97853.63;5011299;28;8921;-79
2022/12/10 06:46:55;;;;;;;;;7.40;5.20;;;;;19.86;42.56;97865.13;5028968;28;8871;-79
2022/12/10 06:49:25;;;;;;;;;9.00;8.00;;;;;19.86;42.75;97860.69;5028717;28;8894;-79
2022/12/10 06:51:53;;;;;;;;;4.80;3.80;;;;;19.99;42.64;97866.00;5027163;28;8840;-79
2022/12/10 06:54:22;;;;;;;;;9.80;8.20;;;;;20.04;42.62;97871.03;5027883;28;8957;-79
2022/12/10 06:56:51;;;;;;;;;9.00;8.00;;;;;20.07;42.66;97870.78;4994745;28;8859;-79
2022/12/10 06:59:20;;;;;;;;;6.80;6.80;;;;;20.17;42.60;97871.03;5027476;28;8895;-78
2022/12/10 07:01:49;;;;;;;;;7.20;7.20;;;;;20.17;42.57;97869.25;5044480;28;8851;-81
2022/12/10 07:04:17;;;;;;;;;4.60;4.60;;;;;20.19;42.47;97864.72;5010515;28;8871;-80
2022/12/10 07:06:48;;;;;;;;;12.20;11.80;;;;;20.24;42.82;97869.69;5044378;28;8932;-80
2022/12/10 07:09:17;;;;;;;;;11.20;10.20;;;;;20.29;42.43;97869.38;5030523;28;9494;-80
2022/12/10 07:11:45;;;;;;;;;11.40;10.60;;;;;20.21;42.97;97869.91;5032584;28;8970;-81
2022/12/10 07:14:17;;;;;;;;;11.40;10.00;;;;;20.35;42.63;97864.50;5032934;28;8875;-81
2022/12/10 07:16:46;;;;;;;;;15.40;13.40;;;;;20.40;42.50;97864.22;5027863;28;8883;-80
2022/12/10 07:19:15;;;;;;;;;12.00;11.00;;;;;20.56;42.33;97864.84;5060629;28;8869;-80
2022/12/10 07:21:45;;;;;;;;;11.60;9.40;;;;;20.48;42.19;97853.94;5045500;28;8951;-82
2022/12/10 07:24:17;;;;;;;;;11.00;11.00;;;;;20.60;42.22;97862.88;5012011;28;8852;-81
2022/12/10 07:26:47;;;;;;;;;12.00;12.00;;;;;20.49;42.45;97855.66;5026414;28;8863;-85
2022/12/10 07:29:18;;;;;;;;;16.60;16.60;;;;;20.59;41.95;97851.41;5026551;28;8878;-85
2022/12/10 07:31:48;;;;;;;;;11.00;11.00;;;;;20.72;42.02;97853.22;5025887;28;8997;-85
2022/12/10 07:34:17;;;;;;;;;9.40;8.20;;;;;20.80;41.95;97858.84;4986927;28;8880;-82
2022/12/10 07:36:46;;;;;;;;;11.00;7.80;;;;;20.75;41.63;97845.06;4987641;28;9007;-82
2022/12/10 07:39:17;;;;;;;;;10.00;8.00;;;;;20.68;41.51;97835.84;4984033;28;8880;-83
2022/12/10 07:41:49;;;;;;;;;10.80;10.20;;;;;20.73;41.82;97836.38;4987312;28;8872;-82
2022/12/10 07:44:20;;;;;;;;;7.00;6.60;;;;;20.78;41.86;97835.13;5019265;28;8873;-81
2022/12/10 07:46:50;;;;;;;;;10.40;10.40;;;;;20.72;41.78;97839.97;5005459;28;8845;-82
2022/12/10 07:49:20;;;;;;;;;8.40;7.20;;;;;20.74;41.76;97831.00;4955592;28;8895;-83
2022/12/10 07:51:49;;;;;;;;;10.80;10.80;;;;;20.67;41.75;97839.47;4968050;28;8937;-82
2022/12/10 07:54:20;;;;;;;;;9.20;9.20;;;;;20.71;42.07;97843.59;4988285;28;8980;-83
2022/12/10 07:56:48;;;;;;;;;6.00;5.60;;;;;20.63;42.06;97846.78;4988857;28;8872;-82
2022/12/10 07:59:18;;;;;;;;;6.40;6.40;;;;;20.68;42.00;97851.75;4987158;28;8877;-87
2022/12/10 08:02:09;;;;;;;;;11.80;11.00;;;;;20.72;42.50;97853.22;5008677;28;8866;-86
2022/12/10 08:04:58;;;;;;;;;10.00;8.80;;;;;20.75;42.20;97853.03;4973371;28;8904;-85
2022/12/10 08:07:27;;;;;;;;;8.20;7.40;;;;;20.77;42.32;97846.66;5005462;28;8874;-84
2022/12/10 08:09:57;;;;;;;;;12.20;11.20;;;;;20.81;42.55;97850.81;4989361;28;8842;-84
2022/12/10 08:12:27;;;;;;;;;8.40;7.60;;;;;20.81;42.33;97855.22;4971484;28;9786;-84
2022/12/10 08:14:56;;;;;;;;;9.40;9.20;;;;;20.83;42.51;97862.16;4988795;28;9597;-84
2022/12/10 08:17:25;;;;;;;;;9.20;8.20;;;;;20.91;42.16;97858.13;5004718;28;8899;-88
2022/12/10 08:19:54;;;;;;;;;10.80;9.80;;;;;20.90;42.23;97854.59;4988976;28;9006;-82
2022/12/10 08:22:23;;;;;;;;;9.80;8.00;;;;;20.89;42.31;97865.28;4992756;28;8864;-83
2022/12/10 08:24:52;;;;;;;;;11.60;9.20;;;;;20.92;42.11;97863.28;4984328;28;8873;-82
2022/12/10 08:27:22;;;;;;;;;10.60;10.40;;;;;20.86;42.32;97855.78;4972026;28;8896;-83
2022/12/10 08:29:51;;;;;;;;;9.60;9.60;;;;;20.95;42.39;97857.78;4989994;28;8964;-84
2022/12/10 08:32:20;;;;;;;;;11.60;11.20;;;;;20.94;42.16;97860.53;4990570;28;8863;-82
2022/12/10 08:34:48;;;;;;;;;12.80;11.40;;;;;20.97;41.96;97858.50;5006206;28;8878;-84
2022/12/10 08:37:17;;;;;;;;;10.40;10.00;;;;;21.07;41.50;97864.00;4993163;28;9069;-85
2022/12/10 08:39:46;;;;;;;;;10.00;10.00;;;;;21.09;41.61;97863.91;5013957;28;8862;-82
2022/12/10 08:42:15;;;;;;;;;12.00;11.60;;;;;21.03;41.71;97860.72;4964406;28;8848;-84
2022/12/10 08:44:45;;;;;;;;;11.60;11.60;;;;;21.00;41.91;97866.25;4973760;28;8854;-83
2022/12/10 08:47:14;;;;;;;;;11.40;11.00;;;;;20.97;41.72;97860.34;4956410;28;8941;-85
2022/12/10 08:49:44;;;;;;;;;14.40;13.80;;;;;20.98;41.46;97870.81;4971955;28;8888;-83
2022/12/10 08:52:12;;;;;;;;;11.60;11.60;;;;;20.94;41.76;97865.84;4942726;28;8922;-82
2022/12/10 08:54:41;;;;;;;;;12.40;10.80;;;;;21.08;41.80;97849.81;4973564;28;8979;-84
2022/12/10 08:57:10;;;;;;;;;11.60;9.60;;;;;21.09;41.72;97848.84;4993429;28;8869;-83
2022/12/10 08:59:38;;;;;;;;;14.00;13.20;;;;;21.18;41.55;97832.28;4976867;28;8887;-84
2022/12/10 09:02:12;;;;;;;;;16.20;14.60;;;;;21.36;41.20;97824.84;4994702;28;8894;-85
2022/12/10 09:04:42;;;;;;;;;11.00;8.40;;;;;21.41;40.89;97821.84;4977169;28;9590;-84
2022/12/10 09:07:11;;;;;;;;;5.40;5.40;;;;;21.46;40.99;97814.44;4993916;28;8897;-86
2022/12/10 09:09:40;;;;;;;;;6.60;6.40;;;;;21.55;40.87;97810.25;4979646;28;8854;-85
2022/12/10 09:12:09;;;;;;;;;11.00;10.80;;;;;21.61;40.81;97813.31;5010006;28;8901;-85
2022/12/10 09:14:40;;;;;;;;;9.20;8.60;;;;;21.61;41.00;97815.13;4976440;28;8882;-86
2022/12/10 09:17:10;;;;;;;;;13.60;13.00;;;;;21.60;40.72;97811.59;4976999;28;8885;-86
2022/12/10 09:19:40;;;;;;;;;15.60;13.60;;;;;21.59;40.78;97809.91;5007803;28;8842;-85
2022/12/10 09:22:09;;;;;;;;;12.40;11.80;;;;;21.60;41.07;97795.69;4977289;28;8881;-84
2022/12/10 09:24:38;;;;;;;;;15.80;11.40;;;;;21.68;41.05;97804.88;4994088;28;8984;-86
2022/12/10 09:27:07;;;;;;;;;23.20;19.20;;;;;21.71;40.94;97802.84;4984558;28;8851;-83
2022/12/10 09:29:36;;;;;;;;;19.20;18.00;;;;;21.65;41.11;97802.47;4975492;28;8933;-82
2022/12/10 09:32:05;;;;;;;;;22.20;19.00;;;;;21.69;41.18;97791.50;4992248;28;8854;-84
2022/12/10 09:34:35;;;;;;;;;16.60;16.60;;;;;21.73;41.14;97777.06;5025848;28;8845;-83
2022/12/10 09:37:04;;;;;;;;;19.60;15.20;;;;;21.75;40.78;97780.44;5009158;28;8926;-85
2022/12/10 09:39:33;;;;;;;;;19.40;17.40;;;;;21.80;40.87;97783.59;5005303;28;8863;-83
2022/12/10 09:42:15;;;;;;;;;20.40;20.00;;;;;21.50;41.43;97784.06;4951830;28;8934;-83
2022/12/10 09:44:54;;;;;;;;;22.00;19.60;;;;;21.43;41.73;97794.22;4930491;28;8866;-83
2022/12/10 09:47:30;;;;;;;;;35.60;32.40;;;;;20.89;42.89;97809.66;4915883;28;8875;-83
2022/12/10 09:50:10;;;;;;;;;13.40;11.40;;;;;21.12;42.46;97797.44;4915633;28;9018;-84
2022/12/10 09:52:45;;;;;;;;;24.60;21.60;;;;;20.67;43.91;97789.16;4932139;28;8867;-83
2022/12/10 09:55:16;;;;;;;;;16.20;15.40;;;;;20.79;43.91;97773.25;4941958;28;8911;-84
2022/12/10 09:57:49;;;;;;;;;17.80;13.40;;;;;21.00;43.62;97776.16;4953388;28;8915;-86
2022/12/10 10:00:26;;;;;;;;;14.00;13.00;;;;;21.28;43.11;97774.16;4997400;28;8861;-86
2022/12/10 10:02:58;;;;;;;;;14.40;13.20;;;;;21.39;42.99;97768.06;5049103;28;8867;-86
2022/12/10 10:05:32;;;;;;;;;21.20;19.40;;;;;21.65;42.87;97758.22;5046167;28;8868;-82
2022/12/10 10:08:03;;;;;;;;;17.40;16.00;;;;;21.83;42.78;97748.00;5031907;28;8866;-83
2022/12/10 10:10:34;;;;;;;;;15.20;13.60;;;;;21.96;41.72;97732.00;5049091;28;8894;-82
2022/12/10 10:13:17;;;;;;;;;14.00;13.20;;;;;22.16;41.55;97719.88;5048023;28;9067;-84
2022/12/10 10:15:46;;;;;;;;;20.00;18.80;;;;;22.10;41.29;97723.84;5028979;28;8966;-85
2022/12/10 10:18:24;;;;;;;;;19.20;18.80;;;;;22.32;41.34;97699.13;4997911;28;8833;-83
2022/12/10 10:20:54;;;;;;;;;19.60;19.00;;;;;22.33;41.18;97703.50;4993408;28;8873;-84
2022/12/10 10:23:23;;;;;;;;;16.40;15.40;;;;;22.17;41.09;97706.47;4998239;28;8876;-83
2022/12/10 10:25:52;;;;;;;;;27.20;20.80;;;;;22.32;41.19;97703.59;5031113;28;8851;-82
2022/12/10 10:28:23;;;;;;;;;12.60;12.60;;;;;22.35;40.84;97692.75;4980837;28;8848;-84
2022/12/10 10:30:54;;;;;;;;;15.00;15.00;;;;;22.42;40.62;97679.81;5032351;28;8859;-84
2022/12/10 10:33:23;;;;;;;;;20.40;17.80;;;;;22.45;40.69;97672.47;5047186;28;8850;-83
2022/12/10 10:35:58;;;;;;;;;17.60;15.80;;;;;22.59;40.52;97666.06;4974975;28;8856;-85
2022/12/10 10:38:29;;;;;;;;;12.80;12.00;;;;;22.48;40.73;97653.63;5045379;28;8853;-84
2022/12/10 10:40:59;;;;;;;;;11.80;11.80;;;;;22.68;40.87;97648.53;5025914;28;8956;-85
2022/12/10 10:43:34;;;;;;;;;10.20;8.60;;;;;22.79;40.31;97640.53;5027786;28;9091;-84
2022/12/10 10:46:07;;;;;;;;;17.00;14.20;;;;;22.83;40.28;97641.97;4987997;28;8857;-84
2022/12/10 10:48:36;;;;;;;;;14.40;12.40;;;;;22.93;39.98;97636.75;5000970;28;8841;-85
2022/12/10 10:51:20;;;;;;;;;12.60;11.00;;;;;23.23;39.91;97645.84;5010132;28;8837;-83
2022/12/10 10:53:51;;;;;;;;;17.60;15.60;;;;;23.22;39.78;97636.22;5010269;28;8861;-84
2022/12/10 10:56:22;;;;;;;;;37.50;34.00;;;;;23.13;39.98;97635.13;5021263;28;8955;-85
2022/12/10 10:58:56;;;;;;;;;9.40;9.40;;;;;23.03;40.00;97640.38;4992278;28;8852;-83
2022/12/10 11:01:26;;;;;;;;;9.80;8.00;;;;;22.93;39.96;97632.28;4991577;28;8856;-84
2022/12/10 11:03:59;;;;;;;;;12.40;10.00;;;;;22.95;39.86;97630.34;4983332;28;8842;-83
2022/12/10 11:06:30;;;;;;;;;12.40;12.20;;;;;22.98;39.99;97630.06;5037184;28;8884;-82
2022/12/10 11:08:59;;;;;;;;;14.40;13.80;;;;;23.03;40.05;97632.41;5026689;28;8874;-84
2022/12/10 11:11:34;;;;;;;;;13.80;13.40;;;;;23.14;39.91;97632.34;4994149;28;8889;-84
2022/12/10 11:14:23;;;;;;;;;12.80;11.80;;;;;23.27;39.67;97623.34;5008285;28;8940;-84
2022/12/10 11:17:00;;;;;;;;;14.60;14.00;;;;;23.10;39.95;97608.78;4990373;28;8868;-82
2022/12/10 11:19:29;;;;;;;;;10.80;10.80;;;;;23.09;39.74;97602.63;4992585;28;8884;-80
2022/12/10 11:22:17;;;;;;;;;14.20;12.40;;;;;23.15;39.77;97591.47;5001980;28;8908;-83
2022/12/10 11:24:47;;;;;;;;;14.40;12.80;;;;;23.01;39.88;97590.94;4970032;28;8886;-84
2022/12/10 11:27:25;;;;;;;;;11.40;11.40;;;;;23.08;40.16;97590.34;4954522;28;8985;-83
2022/12/10 11:30:03;;;;;;;;;14.60;14.40;;;;;23.26;39.94;97585.28;5019576;28;8867;-82
2022/12/10 11:32:54;;;;;;;;;15.40;11.80;;;;;23.10;39.95;97579.53;5028701;28;8974;-85
2022/12/10 11:35:38;;;;;;;;;11.80;9.40;;;;;23.10;40.14;97588.38;5020095;28;8855;-82
2022/12/10 11:38:24;;;;;;;;;12.00;11.00;;;;;23.07;40.32;97579.81;5014144;28;8976;-84
2022/12/10 11:41:03;;;;;;;;;12.40;12.40;;;;;22.92;40.45;97574.75;5005392;28;9592;-83
2022/12/10 11:43:48;;;;;;;;;13.00;11.60;;;;;22.79;40.77;97563.47;4994928;28;8863;-80
2022/12/10 11:46:42;;;;;;;;;12.00;10.60;;;;;22.74;40.68;97557.66;5005746;28;8867;-82
2022/12/10 11:49:25;;;;;;;;;13.40;9.80;;;;;22.47;41.23;97545.69;5012837;28;8840;-82
2022/12/10 11:52:04;;;;;;;;;10.00;10.00;;;;;22.38;41.57;97546.44;5016884;28;9607;-84
2022/12/10 11:55:00;;;;;;;;;10.20;10.20;;;;;22.50;41.57;97549.91;5017399;28;8988;-81
2022/12/10 11:57:46;;;;;;;;;10.20;9.00;;;;;22.22;42.18;97548.63;5044184;28;8993;-83
2022/12/10 12:00:20;;;;;;;;;15.20;14.00;;;;;22.18;42.47;97548.84;5038065;28;8882;-83
2022/12/10 12:03:21;;;;;;;;;12.80;12.60;;;;;22.26;42.40;97535.00;5004198;28;8866;-72
2022/12/10 12:06:12;;;;;;;;;11.20;11.20;;;;;22.15;42.73;97521.72;5000247;28;8882;-78
2022/12/10 12:08:52;;;;;;;;;12.40;10.80;;;;;22.00;43.12;97507.84;4991727;28;8969;-79